Time;durP1;ratioP1;P1;durP2;ratioP2;P2;SDS_P1;SDS_P2;PMS_P1;PMS_P2;Temp;Humidity;BMP_temperature;BMP_pressure;BME280_temperature;BME280_humidity;BME280_pressure;Samples;Min_cycle;Max_cycle;Signal;HPM_P1;HPM_P2
2022/04/18 00:01:58;;;;;;;10.52;5.15;;;9.00;44.10;;;;;;5034289;28;20018;-59
2022/04/18 00:04:25;;;;;;;10.13;4.65;;;8.90;45.10;;;;;;5034176;28;20116;-58
2022/04/18 00:06:50;;;;;;;6.65;3.63;;;8.80;45.40;;;;;;5034072;28;20648;-59
2022/04/18 00:09:16;;;;;;;6.38;3.90;;;8.90;45.60;;;;;;5034760;28;20476;-59
2022/04/18 00:11:42;;;;;;;18.70;8.07;;;9.00;45.70;;;;;;5034153;28;20079;-59
2022/04/18 00:14:09;;;;;;;20.25;9.93;;;8.90;46.20;;;;;;5033905;28;20067;-58
2022/04/18 00:16:35;;;;;;;19.95;10.00;;;8.60;47.50;;;;;;5025630;28;231578;-58
2022/04/18 00:19:00;;;;;;;14.40;7.50;;;8.50;48.20;;;;;;5035027;28;20030;-58
2022/04/18 00:21:26;;;;;;;16.42;8.13;;;8.50;47.50;;;;;;5034760;28;20468;-58
2022/04/18 00:23:52;;;;;;;22.95;11.70;;;8.50;48.00;;;;;;5034843;28;20096;-58
2022/04/18 00:26:17;;;;;;;24.98;11.27;;;8.20;49.00;;;;;;5035069;28;20041;-59
2022/04/18 00:28:43;;;;;;;19.40;10.85;;;8.00;50.30;;;;;;5035077;28;20028;-59
2022/04/18 00:31:09;;;;;;;19.42;10.40;;;7.70;50.70;;;;;;5034736;28;20033;-57
2022/04/18 00:33:35;;;;;;;18.15;9.90;;;7.50;51.10;;;;;;5034716;28;20026;-58
2022/04/18 00:36:01;;;;;;;19.33;10.70;;;7.40;51.10;;;;;;5034533;28;20502;-58
2022/04/18 00:38:28;;;;;;;23.73;11.45;;;7.20;51.60;;;;;;5034540;28;20041;-58
2022/04/18 00:40:54;;;;;;;19.23;10.18;;;7.10;52.40;;;;;;5034609;28;20091;-57
2022/04/18 00:43:46;;;;;;;20.60;11.30;;;6.90;52.40;;;;;;5034840;28;20022;-57
2022/04/18 00:46:15;;;;;;;15.60;8.95;;;6.90;53.50;;;;;;5034059;28;20103;-59
2022/04/18 00:48:41;;;;;;;20.70;11.10;;;6.80;53.00;;;;;;5034528;28;20053;-58
2022/04/18 00:51:11;;;;;;;16.27;9.13;;;6.70;53.50;;;;;;5034415;28;20033;-57
2022/04/18 00:53:38;;;;;;;17.73;9.05;;;6.70;53.60;;;;;;5034451;28;20022;-58
2022/04/18 00:56:06;;;;;;;15.43;8.65;;;6.50;54.50;;;;;;5034381;28;20513;-59
2022/04/18 00:58:32;;;;;;;18.20;10.55;;;6.40;54.70;;;;;;5034247;28;20029;-59
2022/04/18 01:00:58;;;;;;;19.42;9.77;;;6.30;55.30;;;;;;5034260;28;20480;-58
2022/04/18 01:03:24;;;;;;;11.15;7.30;;;6.20;55.50;;;;;;5034441;28;20032;-59
2022/04/18 01:05:50;;;;;;;11.88;7.53;;;6.10;55.20;;;;;;5033707;28;20036;-58
2022/04/18 01:08:16;;;;;;;18.67;9.63;;;6.10;55.30;;;;;;5034380;28;20059;-59
2022/04/18 01:10:43;;;;;;;18.90;9.07;;;6.00;56.30;;;;;;5034339;28;20372;-59
2022/04/18 01:13:09;;;;;;;20.27;9.80;;;5.90;56.40;;;;;;5033923;28;20096;-59
2022/04/18 01:15:34;;;;;;;25.63;10.88;;;6.00;56.70;;;;;;5033998;28;20080;-58
2022/04/18 01:18:00;;;;;;;18.80;9.27;;;6.00;57.10;;;;;;5034038;28;20044;-59
2022/04/18 01:20:35;;;;;;;14.63;7.75;;;6.00;56.60;;;;;;5033655;28;20067;-58
2022/04/18 01:23:04;;;;;;;19.15;8.88;;;5.90;57.00;;;;;;5033741;28;20105;-60
2022/04/18 01:30:58;;;;;;;14.40;7.18;;;6.10;57.60;;;;;;5033981;28;20036;-60
2022/04/18 01:33:24;;;;;;;20.45;8.70;;;6.30;56.30;;;;;;5033762;28;20030;-60
2022/04/18 01:35:50;;;;;;;17.25;8.07;;;6.40;56.40;;;;;;5033540;28;20102;-59
2022/04/18 01:38:15;;;;;;;17.25;7.90;;;6.30;56.60;;;;;;5034045;28;20049;-58
2022/04/18 01:40:41;;;;;;;17.13;7.45;;;6.10;57.40;;;;;;5034078;28;20052;-59
2022/04/18 01:43:07;;;;;;;18.88;8.93;;;6.10;57.50;;;;;;5033509;28;20551;-59
2022/04/18 01:45:34;;;;;;;14.02;6.90;;;6.00;57.90;;;;;;5033412;28;20025;-59
2022/04/18 01:48:00;;;;;;;16.38;7.72;;;6.10;57.30;;;;;;5033826;28;20079;-59
2022/04/18 01:50:26;;;;;;;19.35;9.30;;;6.20;57.20;;;;;;5033396;28;20108;-58
2022/04/18 01:52:52;;;;;;;14.57;7.30;;;6.20;57.20;;;;;;5033465;28;20101;-59
2022/04/18 01:55:18;;;;;;;19.83;7.68;;;6.10;57.60;;;;;;5033267;28;20052;-58
2022/04/18 01:57:44;;;;;;;9.00;4.90;;;6.10;57.20;;;;;;5033766;28;20036;-58
2022/04/18 02:00:10;;;;;;;10.35;5.72;;;6.10;57.50;;;;;;5033330;28;20384;-59
2022/04/18 02:02:35;;;;;;;15.50;8.02;;;6.00;58.10;;;;;;5033075;28;20050;-58
2022/04/18 02:05:01;;;;;;;18.58;8.50;;;5.80;59.10;;;;;;5033186;28;20065;-59
2022/04/18 02:07:28;;;;;;;14.43;7.47;;;5.80;59.90;;;;;;5033379;28;20071;-60
2022/04/18 02:09:55;;;;;;;14.15;6.43;;;5.70;59.60;;;;;;5033090;28;20116;-59
2022/04/18 02:12:20;;;;;;;13.27;6.40;;;5.60;59.70;;;;;;5033200;28;20029;-58
2022/04/18 02:14:47;;;;;;;15.85;7.45;;;5.70;59.80;;;;;;5033180;28;20030;-59
2022/04/18 02:17:12;;;;;;;14.68;7.03;;;5.60;61.00;;;;;;5032797;28;20045;-59
2022/04/18 02:19:38;;;;;;;14.27;7.20;;;5.60;62.20;;;;;;5033274;28;20102;-60
2022/04/18 02:22:05;;;;;;;13.95;7.50;;;5.50;62.20;;;;;;5033120;28;20022;-60
2022/04/18 02:24:31;;;;;;;17.27;8.43;;;5.50;62.50;;;;;;5033101;28;20035;-59
2022/04/18 02:26:57;;;;;;;14.48;7.57;;;5.40;63.40;;;;;;5033043;28;20040;-59
2022/04/18 02:29:23;;;;;;;16.45;7.80;;;5.40;64.10;;;;;;5033292;28;20026;-59
2022/04/18 02:34:32;;;;;;;15.55;8.55;;;5.40;63.50;;;;;;5033310;28;20396;-58
2022/04/18 02:36:58;;;;;;;20.00;9.98;;;5.30;66.00;;;;;;5032889;28;20025;-57
2022/04/18 02:39:24;;;;;;;19.92;10.20;;;5.20;67.50;;;;;;5032854;28;20025;-59
2022/04/18 02:41:49;;;;;;;16.10;9.00;;;5.10;67.30;;;;;;5033134;28;20049;-59
2022/04/18 02:44:15;;;;;;;14.05;7.35;;;5.10;67.40;;;;;;5032923;28;20513;-59
2022/04/18 02:46:41;;;;;;;17.25;7.47;;;5.10;67.90;;;;;;5032589;28;20056;-59
2022/04/18 02:49:07;;;;;;;12.75;6.63;;;5.10;68.10;;;;;;5032871;28;20083;-58
2022/04/18 02:51:32;;;;;;;15.18;6.70;;;5.20;67.80;;;;;;5033127;28;20033;-59
2022/04/18 02:53:59;;;;;;;14.35;7.35;;;5.10;67.80;;;;;;5032709;28;20476;-59
2022/04/18 02:56:25;;;;;;;16.52;7.22;;;5.10;68.40;;;;;;5032908;28;20041;-57
2022/04/18 02:58:50;;;;;;;17.30;8.52;;;5.10;68.60;;;;;;5032784;28;20075;-57
2022/04/18 03:01:16;;;;;;;26.63;15.18;;;5.00;68.60;;;;;;5032485;28;20022;-59
2022/04/18 03:03:42;;;;;;;19.10;11.52;;;4.90;68.70;;;;;;5032622;28;20064;-59
2022/04/18 03:06:08;;;;;;;19.52;10.80;;;4.80;69.70;;;;;;5032860;28;20030;-59
2022/04/18 03:08:33;;;;;;;14.45;9.65;;;4.80;69.20;;;;;;5033750;28;20625;-59
2022/04/18 03:11:06;;;;;;;12.85;8.10;;;4.80;69.50;;;;;;5036239;28;20117;-59
2022/04/18 03:13:36;;;;;;;13.82;7.07;;;4.80;68.90;;;;;;5036325;28;20026;-59
2022/04/18 03:16:03;;;;;;;10.65;5.88;;;4.90;69.00;;;;;;5035931;28;20094;-59
2022/04/18 03:18:29;;;;;;;9.40;5.45;;;5.00;68.30;;;;;;5036206;28;20778;-59
2022/04/18 03:20:55;;;;;;;13.45;7.10;;;5.00;67.40;;;;;;5036168;28;20040;-58
2022/04/18 03:23:21;;;;;;;13.25;7.15;;;4.90;68.80;;;;;;5036602;28;20026;-59
2022/04/18 03:25:46;;;;;;;14.27;6.80;;;4.90;69.60;;;;;;5035891;28;20033;-59
2022/04/18 03:28:12;;;;;;;18.90;8.57;;;4.90;69.50;;;;;;5036058;28;20022;-59
2022/04/18 03:30:39;;;;;;;12.50;7.22;;;4.90;69.90;;;;;;5036015;28;20022;-58
2022/04/18 03:33:05;;;;;;;13.82;7.32;;;4.80;69.20;;;;;;5036120;28;20033;-57
2022/04/18 03:35:31;;;;;;;12.55;6.97;;;4.80;70.40;;;;;;5035964;28;20495;-58
2022/04/18 03:40:41;;;;;;;15.93;8.18;;;4.60;72.20;;;;;;5036205;28;20028;-59
2022/04/18 03:43:07;;;;;;;14.55;7.40;;;4.50;72.80;;;;;;5036277;28;20104;-59
2022/04/18 03:45:33;;;;;;;16.63;7.90;;;4.30;74.10;;;;;;5035417;28;20036;-60
2022/04/18 03:47:59;;;;;;;29.80;15.02;;;4.20;75.10;;;;;;5035596;28;20029;-59
2022/04/18 03:50:25;;;;;;;24.98;12.55;;;4.10;76.40;;;;;;5035884;28;20025;-60
2022/04/18 03:52:51;;;;;;;24.67;11.63;;;4.10;77.60;;;;;;5035554;28;20049;-58
2022/04/18 03:55:16;;;;;;;31.48;14.10;;;4.20;78.40;;;;;;5035381;28;20068;-59
2022/04/18 03:57:43;;;;;;;60.50;31.98;;;4.20;78.50;;;;;;5035557;28;20028;-59
2022/04/18 04:00:10;;;;;;;58.55;29.85;;;4.20;79.00;;;;;;5035478;28;20024;-59
2022/04/18 04:02:36;;;;;;;51.80;28.10;;;4.10;79.60;;;;;;5035279;28;20013;-59
2022/04/18 04:05:03;;;;;;;45.72;23.67;;;4.10;80.50;;;;;;5035399;28;20112;-59
2022/04/18 04:07:29;;;;;;;63.17;33.95;;;4.10;80.80;;;;;;5035257;28;20044;-59
2022/04/18 04:09:54;;;;;;;82.80;42.42;;;4.10;80.10;;;;;;5035180;28;20176;-59
2022/04/18 04:12:24;;;;;;;105.57;49.88;;;4.10;82.50;;;;;;5035411;28;20025;-59
2022/04/18 04:14:54;;;;;;;80.10;38.45;;;4.00;82.80;;;;;;5035292;28;20426;-58
2022/04/18 04:17:22;;;;;;;288.95;122.47;;;3.90;83.70;;;;;;5034837;28;20079;-59
2022/04/18 04:19:49;;;;;;;285.52;117.43;;;3.80;85.60;;;;;;5034229;28;20025;-59
2022/04/18 04:22:14;;;;;;;229.90;95.80;;;3.60;87.40;;;;;;5034870;28;20033;-59
2022/04/18 04:24:40;;;;;;;224.57;92.53;;;3.60;89.70;;;;;;5034932;28;20388;-59
2022/04/18 04:27:06;;;;;;;271.95;111.57;;;3.60;89.30;;;;;;5035158;28;20053;-59
2022/04/18 04:29:32;;;;;;;288.60;119.68;;;3.60;90.00;;;;;;5034703;28;20115;-58
2022/04/18 04:31:58;;;;;;;144.18;62.58;;;3.70;90.50;;;;;;5034761;28;20032;-60
2022/04/18 04:34:24;;;;;;;164.75;72.25;;;3.60;91.40;;;;;;5034730;28;20110;-60
2022/04/18 04:36:50;;;;;;;215.70;94.68;;;3.60;91.30;;;;;;5034990;28;20053;-60
2022/04/18 04:39:16;;;;;;;186.80;76.10;;;3.60;92.10;;;;;;5034527;28;20136;-59
2022/04/18 04:41:42;;;;;;;269.50;102.07;;;3.40;93.20;;;;;;5034745;28;20017;-59
2022/04/18 04:44:08;;;;;;;142.75;57.47;;;3.30;94.60;;;;;;5034370;28;20384;-59
2022/04/18 04:46:35;;;;;;;133.32;54.88;;;3.20;95.30;;;;;;5034485;28;20037;-59
2022/04/18 04:49:00;;;;;;;170.60;67.28;;;3.30;95.70;;;;;;5034776;28;20060;-59
2022/04/18 04:51:26;;;;;;;127.70;53.50;;;3.30;97.10;;;;;;5034724;28;20029;-60
2022/04/18 04:53:52;;;;;;;130.20;56.70;;;3.30;96.20;;;;;;5034658;28;20380;-59
2022/04/18 04:56:19;;;;;;;99.65;44.58;;;3.50;95.60;;;;;;5034450;28;20030;-60
2022/04/18 04:58:45;;;;;;;60.83;26.75;;;3.60;95.40;;;;;;5033783;28;20471;-59
2022/04/18 05:01:11;;;;;;;63.30;26.05;;;3.60;95.40;;;;;;5035379;28;20018;-58
2022/04/18 05:03:36;;;;;;;52.13;22.10;;;3.50;96.80;;;;;;5054054;28;20025;-59
2022/04/18 05:06:02;;;;;;;39.35;19.63;;;3.60;97.30;;;;;;5052969;28;20109;-58
2022/04/18 05:08:28;;;;;;;29.95;16.90;;;3.60;97.00;;;;;;5053748;28;20044;-59
2022/04/18 05:10:55;;;;;;;36.15;20.20;;;3.60;96.70;;;;;;5053537;28;20029;-59
2022/04/18 05:13:23;;;;;;;33.90;20.38;;;3.50;97.30;;;;;;5040112;28;20037;-59
2022/04/18 05:15:49;;;;;;;43.97;24.08;;;3.40;98.60;;;;;;5050233;28;20044;-59
2022/04/18 05:18:15;;;;;;;45.13;24.13;;;3.40;99.80;;;;;;5040988;28;20028;-59
2022/04/18 05:20:40;;;;;;;50.80;26.70;;;3.50;99.30;;;;;;5041109;28;20036;-58
2022/04/18 05:23:06;;;;;;;42.17;23.40;;;3.80;95.40;;;;;;5037134;28;20021;-59
2022/04/18 05:25:32;;;;;;;33.50;19.70;;;4.00;94.10;;;;;;5051497;28;20051;-59
2022/04/18 05:27:58;;;;;;;29.33;16.85;;;4.10;92.20;;;;;;5052082;28;20047;-57
2022/04/18 05:30:24;;;;;;;28.80;16.58;;;4.40;89.60;;;;;;5051554;28;20048;-59
2022/04/18 05:32:49;;;;;;;29.33;16.48;;;4.70;85.10;;;;;;5051271;28;20024;-57
2022/04/18 05:35:15;;;;;;;24.10;14.60;;;5.10;81.20;;;;;;5051201;28;20387;-59
2022/04/18 05:37:41;;;;;;;36.60;22.70;;;5.30;80.40;;;;;;5051738;28;20029;-59
2022/04/18 05:40:08;;;;;;;36.72;20.55;;;5.50;77.00;;;;;;5053175;28;20357;-58
2022/04/18 05:42:35;;;;;;;35.17;20.77;;;5.60;76.00;;;;;;5053297;28;20020;-58
2022/04/18 05:45:00;;;;;;;39.30;23.50;;;5.70;75.60;;;;;;5051940;28;20029;-59
2022/04/18 05:47:26;;;;;;;31.38;18.48;;;5.80;74.60;;;;;;5040960;28;20036;-58
2022/04/18 05:49:52;;;;;;;23.13;13.60;;;5.90;73.20;;;;;;5030851;28;20033;-58
2022/04/18 05:52:18;;;;;;;16.88;11.10;;;6.10;72.10;;;;;;5039154;28;20035;-59
2022/04/18 05:54:44;;;;;;;18.58;9.50;;;6.10;70.10;;;;;;5042242;28;20026;-59
2022/04/18 05:57:09;;;;;;;15.30;8.57;;;6.20;69.80;;;;;;5042618;28;20040;-56
2022/04/18 05:59:35;;;;;;;14.27;8.13;;;6.30;68.20;;;;;;5034413;28;20504;-57
2022/04/18 06:02:01;;;;;;;13.82;8.57;;;6.50;66.90;;;;;;5040268;28;20370;-57
2022/04/18 06:04:27;;;;;;;11.85;6.85;;;6.70;66.40;;;;;;5051109;28;20033;-58
2022/04/18 06:06:52;;;;;;;13.05;7.28;;;6.90;65.30;;;;;;5042959;28;20417;-58
2022/04/18 06:09:18;;;;;;;12.30;6.82;;;7.00;65.00;;;;;;5035287;28;20043;-58
2022/04/18 06:11:44;;;;;;;11.02;5.93;;;7.20;64.50;;;;;;5026034;28;20056;-57
2022/04/18 06:14:10;;;;;;;11.68;6.03;;;7.30;63.80;;;;;;5030436;28;20365;-59
2022/04/18 06:16:35;;;;;;;7.53;4.45;;;7.40;63.40;;;;;;5031202;28;20050;-59
2022/04/18 06:19:01;;;;;;;8.27;5.00;;;7.50;64.00;;;;;;5032281;28;20025;-59
2022/04/18 06:21:30;;;;;;;13.45;8.25;;;7.90;62.30;;;;;;5036680;28;20467;-59
2022/04/18 06:23:56;;;;;;;7.80;4.85;;;10.80;55.50;;;;;;5034776;28;20416;-63
2022/04/18 06:26:22;;;;;;;7.60;4.25;;;14.30;50.20;;;;;;5034269;28;20037;-63
2022/04/18 06:28:49;;;;;;;4.07;3.50;;;17.10;43.50;;;;;;5042836;28;20034;-62
2022/04/18 06:31:14;;;;;;;5.63;3.40;;;19.10;38.10;;;;;;5044320;28;20583;-63
2022/04/18 06:33:40;;;;;;;7.32;3.70;;;20.40;36.80;;;;;;5036013;28;20120;-62
2022/04/18 06:36:06;;;;;;;4.40;3.20;;;21.60;33.80;;;;;;5034669;28;20094;-63
2022/04/18 06:38:31;;;;;;;4.03;3.00;;;22.70;32.80;;;;;;5031715;28;20104;-62
2022/04/18 06:40:58;;;;;;;5.07;2.97;;;23.60;31.10;;;;;;5040467;28;20391;-60
2022/04/18 06:43:24;;;;;;;4.35;3.10;;;23.90;30.40;;;;;;5046632;28;20492;-62
2022/04/18 06:45:50;;;;;;;5.22;3.10;;;24.80;29.80;;;;;;5052284;28;20528;-59
2022/04/18 06:48:16;;;;;;;3.25;2.78;;;25.00;29.70;;;;;;5048519;28;20031;-61
2022/04/18 06:50:42;;;;;;;4.38;2.97;;;25.60;29.30;;;;;;5034248;28;20096;-60
2022/04/18 06:53:08;;;;;;;3.65;2.83;;;24.90;29.00;;;;;;5034592;28;20026;-65
2022/04/18 06:58:19;;;;;;;4.88;3.15;;;25.70;28.80;;;;;;5049536;28;20048;-66
2022/04/18 07:00:45;;;;;;;4.72;3.15;;;26.10;28.10;;;;;;5049642;28;20021;-62
2022/04/18 07:03:10;;;;;;;3.72;2.97;;;26.10;28.10;;;;;;5032117;28;20037;-60
2022/04/18 07:05:36;;;;;;;5.22;3.40;;;26.40;27.90;;;;;;5030804;28;20040;-59
2022/04/18 07:08:02;;;;;;;3.75;2.53;;;26.50;27.80;;;;;;5030937;28;20025;-58
2022/04/18 07:10:27;;;;;;;4.35;3.20;;;26.50;27.20;;;;;;5031605;28;20071;-58
2022/04/18 07:12:53;;;;;;;5.18;3.33;;;26.90;28.10;;;;;;5033099;28;20472;-59
2022/04/18 07:15:19;;;;;;;3.72;2.83;;;27.10;27.00;;;;;;5051004;28;20044;-59
2022/04/18 07:17:44;;;;;;;4.47;3.40;;;27.30;26.80;;;;;;5049619;28;20452;-59
2022/04/18 07:20:10;;;;;;;3.60;2.85;;;27.50;27.20;;;;;;5042477;28;20024;-59
2022/04/18 07:26:51;;;;;;;4.05;2.50;;;28.40;26.50;;;;;;5035252;28;20094;-59
2022/04/18 07:29:16;;;;;;;5.80;2.92;;;28.10;25.80;;;;;;5054217;28;20025;-59
2022/04/18 07:31:42;;;;;;;4.55;3.90;;;27.30;26.50;;;;;;5055921;28;20067;-54
2022/04/18 07:34:09;;;;;;;4.72;3.63;;;27.40;26.30;;;;;;5042288;28;20103;-56
2022/04/18 07:36:35;;;;;;;6.25;3.65;;;27.80;26.20;;;;;;5035722;28;20039;-60
2022/04/18 07:39:01;;;;;;;5.00;3.35;;;28.30;25.90;;;;;;5052857;28;20509;-60
2022/04/18 07:41:28;;;;;;;5.55;3.35;;;28.20;25.70;;;;;;5044011;28;20029;-60
2022/04/18 07:43:56;;;;;;;3.95;2.30;;;28.00;26.00;;;;;;5035161;28;20400;-59
2022/04/18 07:46:22;;;;;;;2.63;2.05;;;28.00;25.50;;;;;;5033414;28;20029;-63
2022/04/18 07:48:50;;;;;;;4.13;3.35;;;27.70;26.30;;;;;;5033494;28;20491;-60
2022/04/18 07:51:32;;;;;;;5.13;4.07;;;27.90;26.00;;;;;;5033197;28;20096;-57
2022/04/18 07:53:58;;;;;;;3.90;3.00;;;27.20;26.00;;;;;;5046112;28;20047;-64
2022/04/18 07:56:25;;;;;;;3.83;2.60;;;28.00;25.80;;;;;;5052774;28;20033;-66
2022/04/18 07:58:52;;;;;;;1.80;1.25;;;27.90;26.90;;;;;;5052458;28;20028;-65
2022/04/18 08:01:18;;;;;;;1.40;1.05;;;27.80;24.60;;;;;;5050208;28;20519;-65
2022/04/18 08:03:45;;;;;;;1.52;1.20;;;27.50;26.00;;;;;;5050883;28;20056;-61
2022/04/18 08:06:10;;;;;;;1.20;1.00;;;28.20;25.50;;;;;;5050003;28;20025;-62
2022/04/18 08:08:39;;;;;;;1.10;0.88;;;28.80;25.60;;;;;;5049629;28;20044;-61
2022/04/18 08:11:05;;;;;;;0.95;0.70;;;28.60;24.50;;;;;;5049705;28;20059;-58
2022/04/18 08:13:31;;;;;;;0.77;0.52;;;28.70;25.10;;;;;;5051286;28;20092;-61
2022/04/18 08:15:57;;;;;;;0.88;0.60;;;28.40;24.80;;;;;;5052482;28;20136;-53
2022/04/18 08:18:23;;;;;;;0.63;0.50;;;28.30;24.70;;;;;;5053080;28;20485;-64
2022/04/18 08:20:49;;;;;;;1.40;1.10;;;28.60;24.40;;;;;;5052792;28;20029;-61
2022/04/18 08:23:16;;;;;;;1.70;1.50;;;28.40;24.50;;;;;;5053221;28;20383;-62
2022/04/18 08:25:41;;;;;;;0.95;0.90;;;27.70;25.30;;;;;;5047488;28;20531;-61
2022/04/18 08:28:07;;;;;;;1.70;0.80;;;27.20;25.00;;;;;;5051706;28;20225;-59
2022/04/18 08:30:33;;;;;;;0.57;0.57;;;27.60;26.30;;;;;;5052628;28;20021;-61
2022/04/18 08:32:59;;;;;;;1.15;0.85;;;27.90;25.50;;;;;;5052658;28;20025;-60
2022/04/18 08:35:26;;;;;;;1.58;0.52;;;28.10;25.20;;;;;;5052667;28;20500;-64
2022/04/18 08:37:52;;;;;;;1.00;0.60;;;27.80;25.30;;;;;;5051988;28;20234;-66
2022/04/18 08:40:18;;;;;;;0.65;0.55;;;28.00;25.40;;;;;;5049550;28;20400;-62
2022/04/18 08:42:44;;;;;;;1.00;0.70;;;27.50;26.10;;;;;;5048721;28;20021;-64
2022/04/18 08:45:14;;;;;;;0.82;0.70;;;27.50;24.80;;;;;;5047050;28;20038;-59
2022/04/18 08:53:12;;;;;;;1.23;0.70;;;26.80;26.20;;;;;;5044300;28;20032;-64
2022/04/18 08:55:40;;;;;;;1.20;0.60;;;26.50;26.00;;;;;;5035523;28;20083;-61
2022/04/18 08:58:05;;;;;;;0.60;0.60;;;26.30;25.30;;;;;;5031189;28;20026;-62
2022/04/18 09:00:31;;;;;;;0.68;0.55;;;25.90;24.90;;;;;;5032965;28;20031;-68
2022/04/18 09:02:57;;;;;;;1.10;0.70;;;25.50;25.90;;;;;;5031416;28;20451;-64
2022/04/18 09:05:24;;;;;;;1.08;0.70;;;25.30;25.30;;;;;;5034655;28;20029;-61
2022/04/18 09:07:59;;;;;;;0.68;0.60;;;24.80;25.50;;;;;;5037034;28;20462;-62
2022/04/18 09:10:25;;;;;;;1.40;0.68;;;24.90;26.00;;;;;;5031209;28;20052;-60
2022/04/18 09:12:51;;;;;;;0.70;0.60;;;24.60;25.90;;;;;;5037534;28;20475;-63
2022/04/18 09:15:49;;;;;;;1.08;0.77;;;24.20;25.80;;;;;;5061248;28;20024;-62
2022/04/18 09:18:17;;;;;;;0.98;0.73;;;24.40;28.10;;;;;;5065359;28;20093;-65
2022/04/18 09:20:51;;;;;;;1.65;0.98;;;24.80;28.10;;;;;;5058242;28;20025;-63
2022/04/18 09:23:25;;;;;;;1.45;1.20;;;25.20;27.40;;;;;;5048907;28;20052;-57
2022/04/18 09:25:56;;;;;;;0.75;0.57;;;25.10;26.10;;;;;;5048295;28;20463;-60
2022/04/18 09:28:25;;;;;;;1.10;0.80;;;24.10;28.30;;;;;;5053015;28;20058;-57
2022/04/18 09:31:06;;;;;;;2.67;0.95;;;23.20;27.50;;;;;;5050150;28;20025;-63
2022/04/18 09:33:45;;;;;;;1.52;0.90;;;23.20;28.50;;;;;;5031761;28;20032;-65
2022/04/18 09:36:16;;;;;;;2.15;1.00;;;23.20;28.10;;;;;;5033287;28;20376;-64
2022/04/18 09:38:48;;;;;;;2.25;0.93;;;23.30;28.20;;;;;;5048699;28;20108;-57
2022/04/18 09:41:15;;;;;;;1.38;0.70;;;23.50;28.50;;;;;;5033438;28;20451;-61
2022/04/18 09:43:44;;;;;;;1.33;1.05;;;22.70;26.30;;;;;;5039419;28;20480;-61
2022/04/18 09:46:12;;;;;;;1.17;0.80;;;22.50;27.60;;;;;;5041850;28;20052;-56
2022/04/18 09:48:46;;;;;;;0.98;0.80;;;22.20;26.10;;;;;;5039545;28;20096;-59
2022/04/18 09:51:17;;;;;;;1.70;1.08;;;21.50;27.60;;;;;;5038693;28;20021;-68
2022/04/18 09:53:46;;;;;;;0.98;0.80;;;21.40;27.70;;;;;;5037982;28;20033;-59
2022/04/18 09:56:50;;;;;;;1.13;0.90;;;21.60;28.50;;;;;;5050797;28;20034;-65
2022/04/18 09:59:17;;;;;;;2.28;0.85;;;21.90;27.10;;;;;;5036391;28;20032;-51
2022/04/18 10:01:44;;;;;;;1.50;0.80;;;22.40;28.40;;;;;;5039450;28;20549;-57
2022/04/18 10:04:11;;;;;;;1.65;0.70;;;22.70;27.70;;;;;;5042649;28;20070;-58
2022/04/18 10:06:41;;;;;;;0.90;0.80;;;22.30;26.30;;;;;;5031383;28;20021;-62
2022/04/18 10:09:08;;;;;;;1.10;1.00;;;22.60;29.60;;;;;;5038468;28;20032;-63
2022/04/18 10:11:35;;;;;;;1.27;0.80;;;23.30;28.20;;;;;;5043388;28;20494;-60
2022/04/18 10:14:00;;;;;;;1.08;0.82;;;23.70;27.80;;;;;;5028263;28;20380;-61
2022/04/18 10:16:30;;;;;;;0.93;0.70;;;23.30;27.00;;;;;;5032247;28;20044;-60
2022/04/18 10:19:01;;;;;;;0.90;0.90;;;23.00;28.20;;;;;;5040360;28;20028;-63
2022/04/18 10:21:31;;;;;;;2.22;1.40;;;22.10;26.50;;;;;;5052139;28;20029;-61
2022/04/18 10:24:22;;;;;;;1.15;1.00;;;21.40;26.90;;;;;;5046305;28;20027;-61
2022/04/18 10:27:02;;;;;;;1.70;1.00;;;20.70;26.90;;;;;;5044236;28;20040;-60
2022/04/18 10:29:36;;;;;;;1.27;1.10;;;20.40;27.80;;;;;;5042434;28;20636;-60
2022/04/18 10:32:03;;;;;;;3.42;1.20;;;21.10;29.20;;;;;;5051152;28;20117;-59
2022/04/18 10:34:31;;;;;;;1.75;1.38;;;21.90;31.60;;;;;;5037894;28;20090;-63
2022/04/18 10:37:00;;;;;;;2.55;1.33;;;22.50;27.90;;;;;;5042445;28;20021;-59
2022/04/18 10:39:36;;;;;;;3.55;1.40;;;21.90;28.20;;;;;;5048857;28;20040;-60
2022/04/18 10:42:19;;;;;;;1.52;0.90;;;21.10;27.30;;;;;;5038310;28;20067;-62
2022/04/18 10:45:14;;;;;;;1.00;0.90;;;20.70;27.60;;;;;;5034724;28;20108;-63
2022/04/18 10:48:09;;;;;;;1.67;1.40;;;20.30;28.00;;;;;;5041764;28;20025;-63
2022/04/18 10:51:03;;;;;;;1.27;1.00;;;19.60;29.30;;;;;;5050994;28;20196;-62
2022/04/18 10:53:35;;;;;;;1.23;0.95;;;19.80;28.50;;;;;;5044196;28;20640;-59
2022/04/18 10:56:01;;;;;;;1.35;0.90;;;20.10;30.50;;;;;;5043369;28;20036;-58
2022/04/18 10:58:31;;;;;;;3.03;1.20;;;20.20;30.00;;;;;;5052041;28;20032;-60
2022/04/18 11:00:59;;;;;;;1.30;1.20;;;19.90;29.20;;;;;;5049271;28;20387;-58
2022/04/18 11:03:41;;;;;;;2.63;1.30;;;20.10;31.50;;;;;;5032864;28;20033;-60
2022/04/18 11:06:15;;;;;;;3.17;1.33;;;20.30;29.00;;;;;;5044113;28;20063;-60
2022/04/18 11:08:42;;;;;;;1.13;1.02;;;20.30;28.90;;;;;;5035811;28;20033;-56
2022/04/18 11:11:18;;;;;;;0.80;0.80;;;20.50;29.40;;;;;;5041380;28;20484;-62
2022/04/18 11:13:47;;;;;;;0.80;0.73;;;21.10;28.40;;;;;;5045323;28;20514;-60
2022/04/18 11:16:22;;;;;;;1.30;0.90;;;21.50;28.40;;;;;;5053139;28;20041;-61
2022/04/18 11:19:07;;;;;;;3.13;1.60;;;21.80;30.60;;;;;;5040834;28;20327;-61
2022/04/18 11:21:59;;;;;;;2.20;1.20;;;22.20;28.80;;;;;;5033076;28;20022;-61
2022/04/18 11:24:41;;;;;;;0.85;0.85;;;21.90;28.60;;;;;;5050376;28;20041;-61
2022/04/18 11:27:17;;;;;;;1.80;1.00;;;21.40;27.90;;;;;;5051118;28;20040;-53
2022/04/18 11:29:51;;;;;;;1.70;1.40;;;21.00;27.90;;;;;;5048357;28;20033;-58
2022/04/18 11:32:19;;;;;;;1.92;1.30;;;20.50;28.00;;;;;;5050954;28;20036;-60
2022/04/18 11:34:47;;;;;;;1.85;1.45;;;20.10;28.30;;;;;;5050012;28;20032;-55
2022/04/18 11:37:28;;;;;;;1.70;1.25;;;19.70;28.70;;;;;;5049907;28;20143;-60
2022/04/18 11:39:58;;;;;;;1.58;0.93;;;19.40;28.70;;;;;;5048670;28;20055;-60
2022/04/18 11:42:30;;;;;;;1.30;1.15;;;19.10;28.60;;;;;;5038730;28;20047;-61
2022/04/18 11:44:58;;;;;;;1.05;0.95;;;19.00;28.60;;;;;;5045064;28;20049;-62
2022/04/18 11:47:26;;;;;;;2.17;1.17;;;18.90;28.70;;;;;;5051107;28;20017;-57
2022/04/18 11:50:01;;;;;;;1.92;1.55;;;18.90;29.10;;;;;;5050818;28;20021;-59
2022/04/18 11:52:29;;;;;;;1.52;1.00;;;19.00;28.50;;;;;;5032883;28;20037;-58
2022/04/18 11:55:02;;;;;;;2.92;1.10;;;19.00;28.80;;;;;;5033339;28;20039;-58
2022/04/18 11:57:31;;;;;;;1.92;1.20;;;19.10;29.60;;;;;;5049350;28;20024;-55
2022/04/18 11:59:57;;;;;;;1.30;1.10;;;19.10;29.70;;;;;;5052699;28;20064;-56
2022/04/18 12:08:00;;;;;;;1.30;1.10;;;19.70;30.30;;;;;;5049919;28;20036;-59
2022/04/18 12:10:31;;;;;;;1.20;1.00;;;19.40;29.90;;;;;;5039271;28;20116;-62
2022/04/18 12:12:59;;;;;;;1.50;1.00;;;19.10;29.70;;;;;;5033654;28;20108;-58
2022/04/18 12:15:27;;;;;;;1.42;1.02;;;18.80;30.00;;;;;;5032917;28;20387;-59
2022/04/18 12:17:55;;;;;;;1.00;0.90;;;18.50;30.30;;;;;;5036421;28;20030;-57
2022/04/18 12:20:22;;;;;;;1.10;1.00;;;18.40;30.00;;;;;;5042096;28;20051;-56
2022/04/18 12:22:51;;;;;;;2.60;1.02;;;18.40;29.40;;;;;;5039953;28;20083;-53
2022/04/18 12:25:21;;;;;;;1.13;1.02;;;18.30;29.60;;;;;;5050115;28;20127;-56
2022/04/18 12:27:47;;;;;;;1.10;1.00;;;18.20;29.80;;;;;;5034614;28;20454;-58
2022/04/18 12:30:13;;;;;;;1.60;1.30;;;18.30;30.10;;;;;;5032678;28;20089;-61
2022/04/18 12:32:39;;;;;;;2.42;1.30;;;17.90;30.70;;;;;;5031966;28;20028;-58
2022/04/18 12:35:05;;;;;;;1.63;1.10;;;17.90;31.30;;;;;;5032945;28;20036;-58
2022/04/18 12:37:31;;;;;;;1.50;1.20;;;18.00;31.50;;;;;;5033335;28;20022;-60
2022/04/18 12:40:14;;;;;;;1.50;1.30;;;18.00;31.50;;;;;;5039309;28;20032;-54
2022/04/18 12:42:40;;;;;;;1.25;1.13;;;18.20;32.70;;;;;;5053475;28;20487;-54
2022/04/18 12:45:06;;;;;;;1.45;1.02;;;18.20;32.30;;;;;;5054659;28;20072;-58
2022/04/18 12:47:35;;;;;;;2.80;1.20;;;18.30;30.60;;;;;;5048274;28;20092;-56
2022/04/18 12:50:05;;;;;;;1.45;1.27;;;18.60;31.10;;;;;;5050552;28;20079;-56
2022/04/18 12:52:31;;;;;;;1.35;0.90;;;18.60;32.40;;;;;;5052876;28;20024;-57
2022/04/18 12:55:07;;;;;;;1.25;1.13;;;18.60;31.30;;;;;;5050937;28;20031;-60
2022/04/18 12:57:33;;;;;;;1.33;1.10;;;18.60;31.40;;;;;;5051642;28;20017;-58
2022/04/18 13:00:15;;;;;;;1.50;1.25;;;18.40;31.00;;;;;;5053804;28;20032;-57
2022/04/18 13:03:01;;;;;;;1.10;0.98;;;18.40;31.20;;;;;;5054324;28;20025;-58
2022/04/18 13:05:31;;;;;;;1.02;0.93;;;18.50;31.50;;;;;;5051287;28;20025;-54
2022/04/18 13:08:05;;;;;;;1.20;0.95;;;18.50;30.90;;;;;;5050800;28;20017;-61
2022/04/18 13:10:34;;;;;;;1.60;0.95;;;18.50;30.40;;;;;;5049381;28;20041;-59
2022/04/18 13:13:17;;;;;;;1.75;1.10;;;18.60;30.90;;;;;;5050728;28;20439;-61
2022/04/18 13:15:45;;;;;;;1.52;1.17;;;18.50;30.80;;;;;;5050349;28;20045;-54
2022/04/18 13:18:22;;;;;;;1.42;1.10;;;18.40;30.70;;;;;;5050568;28;20063;-57